createdAt,value
2018-12-31T00:01:10.783Z,47.10
2018-12-31T00:03:41.419Z,49.17
2018-12-31T00:06:12.198Z,45.97
2018-12-31T00:08:42.818Z,43.90
2018-12-31T00:11:13.374Z,42.70
2018-12-31T00:13:44.040Z,44.03
2018-12-31T00:16:14.813Z,44.60
2018-12-31T00:18:45.863Z,42.77
2018-12-31T00:21:16.579Z,44.87
2018-12-31T00:23:47.494Z,45.33
2018-12-31T00:26:18.083Z,40.17
2018-12-31T00:28:49.008Z,40.67
2018-12-31T00:31:19.784Z,38.70
2018-12-31T00:33:50.409Z,37.07
2018-12-31T00:36:21.025Z,38.33
2018-12-31T00:38:52.254Z,36.33
2018-12-31T00:41:23.098Z,37.87
2018-12-31T00:43:54.253Z,41.47
2018-12-31T00:46:25.618Z,42.77
2018-12-31T00:48:56.933Z,41.43
2018-12-31T00:51:28.263Z,43.10
2018-12-31T00:53:59.883Z,37.93
2018-12-31T00:56:31.198Z,39.80
2018-12-31T00:59:02.032Z,42.10
2018-12-31T01:01:32.678Z,41.37
2018-12-31T01:04:03.612Z,41.77
2018-12-31T01:06:34.318Z,41.23
2018-12-31T01:09:06.838Z,45.23
2018-12-31T01:11:37.442Z,39.23
2018-12-31T01:14:08.287Z,40.00
2018-12-31T01:16:39.238Z,42.37
2018-12-31T01:19:09.917Z,44.70
2018-12-31T01:21:40.439Z,50.67
2018-12-31T01:24:11.877Z,52.10
2018-12-31T01:26:42.533Z,46.47
2018-12-31T01:29:13.233Z,43.37
2018-12-31T01:31:44.233Z,48.33
2018-12-31T01:34:15.243Z,44.07
2018-12-31T01:36:45.788Z,40.13
2018-12-31T01:39:16.507Z,36.33
2018-12-31T01:41:47.103Z,39.47
2018-12-31T01:44:18.348Z,39.00
2018-12-31T01:46:49.137Z,38.23
2018-12-31T01:49:19.972Z,37.27
2018-12-31T01:51:50.622Z,35.93
2018-12-31T01:54:21.682Z,34.70
2018-12-31T01:56:52.403Z,35.67
2018-12-31T01:59:23.167Z,34.67
2018-12-31T02:01:55.007Z,35.03
2018-12-31T02:04:25.937Z,35.63
2018-12-31T02:06:56.747Z,33.13
2018-12-31T02:09:27.477Z,32.77
2018-12-31T02:11:58.036Z,33.40
2018-12-31T02:14:28.667Z,35.33
2018-12-31T02:16:59.407Z,32.37
2018-12-31T02:19:29.847Z,33.40
2018-12-31T02:22:10.831Z,31.13
2018-12-31T02:24:32.902Z,32.47
2018-12-31T02:27:03.717Z,31.50
2018-12-31T02:29:34.561Z,32.13
2018-12-31T02:32:05.329Z,36.33
2018-12-31T02:34:35.927Z,31.23
2018-12-31T02:37:06.643Z,28.37
2018-12-31T02:39:37.492Z,35.90
2018-12-31T02:42:08.101Z,29.33
2018-12-31T02:44:38.892Z,31.47
2018-12-31T02:47:09.362Z,29.80
2018-12-31T02:49:40.288Z,28.97
2018-12-31T02:52:11.244Z,26.87
2018-12-31T02:54:42.031Z,21.47
2018-12-31T02:57:12.697Z,26.30
2018-12-31T02:59:43.317Z,27.23
2018-12-31T03:02:13.827Z,28.53
2018-12-31T03:04:44.522Z,27.33
2018-12-31T03:07:15.162Z,26.17
2018-12-31T03:09:45.803Z,21.47
2018-12-31T03:12:16.492Z,21.83
2018-12-31T03:14:47.182Z,22.77
2018-12-31T03:17:18.168Z,21.70
2018-12-31T03:20:13.599Z,20.20
2018-12-31T03:22:44.372Z,21.10
2018-12-31T03:25:14.848Z,18.13
2018-12-31T03:27:45.557Z,18.83
2018-12-31T03:30:16.508Z,18.70
2018-12-31T03:32:47.171Z,18.07
2018-12-31T03:35:17.653Z,18.87
2018-12-31T03:37:48.159Z,21.60
2018-12-31T03:40:18.804Z,21.43
2018-12-31T03:42:49.387Z,21.90
2018-12-31T03:45:20.178Z,22.23
2018-12-31T03:47:50.838Z,18.57
2018-12-31T03:50:21.303Z,21.47
2018-12-31T03:52:51.993Z,24.40
2018-12-31T03:55:22.938Z,23.40
2018-12-31T03:57:53.516Z,22.57
2018-12-31T04:00:24.273Z,19.93
2018-12-31T04:02:54.788Z,22.00
2018-12-31T04:05:25.681Z,24.63
2018-12-31T04:07:56.698Z,24.63
2018-12-31T04:10:27.298Z,23.97
2018-12-31T04:12:57.936Z,24.97
2018-12-31T04:15:28.849Z,22.30
2018-12-31T04:17:59.494Z,24.53
2018-12-31T04:20:30.269Z,24.17
2018-12-31T04:23:01.038Z,21.50
2018-12-31T04:25:31.593Z,23.83
2018-12-31T04:28:02.320Z,23.07
2018-12-31T04:30:32.733Z,25.50
2018-12-31T04:33:03.101Z,22.53
2018-12-31T04:35:33.663Z,22.50
2018-12-31T04:38:04.262Z,30.27
2018-12-31T04:40:34.627Z,24.37
2018-12-31T04:43:05.773Z,21.20
2018-12-31T04:45:36.177Z,22.27
2018-12-31T04:48:06.972Z,22.43
2018-12-31T04:50:37.467Z,21.27
2018-12-31T04:53:08.418Z,23.87
2018-12-31T04:55:44.340Z,20.77
2018-12-31T04:58:11.382Z,22.80
2018-12-31T05:00:41.808Z,22.70
2018-12-31T05:03:12.177Z,23.90
2018-12-31T05:05:42.598Z,25.00
2018-12-31T05:08:13.327Z,24.23
2018-12-31T05:10:44.143Z,23.33
2018-12-31T05:13:15.209Z,23.93
2018-12-31T05:15:46.174Z,24.00
2018-12-31T05:18:16.499Z,20.10
2018-12-31T05:20:47.133Z,22.20
2018-12-31T05:23:17.904Z,19.33
2018-12-31T05:25:48.333Z,21.17
2018-12-31T05:28:18.743Z,23.07
2018-12-31T05:30:49.458Z,24.50
2018-12-31T05:33:20.169Z,23.33
2018-12-31T05:35:50.703Z,23.80
2018-12-31T05:38:21.388Z,23.50
2018-12-31T05:40:51.919Z,22.63
2018-12-31T05:43:22.453Z,24.10
2018-12-31T05:45:52.998Z,23.40
2018-12-31T05:48:23.443Z,23.33
2018-12-31T05:50:53.928Z,22.97
2018-12-31T05:53:24.337Z,23.43
2018-12-31T05:55:55.206Z,24.07
2018-12-31T05:58:25.683Z,25.70
2018-12-31T06:00:56.248Z,24.20
2018-12-31T06:03:26.891Z,21.93
2018-12-31T06:05:57.591Z,23.03
2018-12-31T06:08:28.123Z,28.40
2018-12-31T06:10:59.094Z,38.17
2018-12-31T06:13:29.464Z,26.13
2018-12-31T06:15:59.983Z,22.87
2018-12-31T06:18:30.399Z,26.13
2018-12-31T06:21:01.099Z,23.13
2018-12-31T06:23:31.628Z,21.70
2018-12-31T06:26:02.098Z,24.67
2018-12-31T06:28:32.899Z,23.57
2018-12-31T06:31:03.678Z,25.37
2018-12-31T06:33:34.293Z,25.00
2018-12-31T06:36:04.793Z,26.27
2018-12-31T06:38:35.253Z,24.97
2018-12-31T06:41:05.964Z,26.40
2018-12-31T06:43:36.578Z,25.30
2018-12-31T06:46:07.088Z,26.20
2018-12-31T06:48:37.699Z,25.47
2018-12-31T06:51:08.658Z,28.00
2018-12-31T06:53:39.212Z,27.47
2018-12-31T06:56:09.873Z,27.63
2018-12-31T06:58:40.463Z,26.50
2018-12-31T07:01:11.275Z,27.90
2018-12-31T07:03:42.318Z,28.90
2018-12-31T07:06:12.938Z,27.87
2018-12-31T07:08:43.483Z,28.03
2018-12-31T07:11:14.158Z,28.80
2018-12-31T07:13:44.878Z,33.07
2018-12-31T07:16:15.543Z,29.27
2018-12-31T07:18:46.168Z,31.27
2018-12-31T07:21:16.607Z,29.20
2018-12-31T07:23:48.528Z,30.13
2018-12-31T07:26:19.368Z,29.13
2018-12-31T07:28:50.154Z,26.63
2018-12-31T07:31:20.994Z,25.30
2018-12-31T07:33:51.523Z,23.33
2018-12-31T07:36:22.478Z,23.10
2018-12-31T07:38:53.553Z,23.90
2018-12-31T07:41:31.099Z,25.07
2018-12-31T07:44:01.838Z,25.70
2018-12-31T07:46:33.458Z,25.17
2018-12-31T07:49:04.566Z,25.57
2018-12-31T07:51:41.078Z,26.37
2018-12-31T07:54:43.043Z,23.63
2018-12-31T07:57:24.367Z,23.80
2018-12-31T08:00:09.983Z,25.80
2018-12-31T08:02:47.356Z,26.27
2018-12-31T08:05:21.527Z,24.43
2018-12-31T08:07:55.187Z,24.53
2018-12-31T08:10:30.527Z,26.60
2018-12-31T08:13:01.462Z,27.40
2018-12-31T08:15:41.513Z,26.20
2018-12-31T08:18:15.013Z,26.03
2018-12-31T08:20:47.217Z,26.03
2018-12-31T08:23:22.178Z,25.03
2018-12-31T08:25:57.918Z,25.03
2018-12-31T08:28:33.118Z,26.33
2018-12-31T08:31:04.013Z,25.07
2018-12-31T08:33:34.888Z,25.40
2018-12-31T08:36:06.423Z,24.03
2018-12-31T08:38:37.249Z,23.93
2018-12-31T08:41:10.738Z,23.30
2018-12-31T08:43:41.777Z,24.67
2018-12-31T08:46:13.354Z,25.43
2018-12-31T08:48:45.503Z,23.10
2018-12-31T08:51:16.152Z,23.10
2018-12-31T08:53:46.592Z,23.30
2018-12-31T08:56:18.143Z,20.13
2018-12-31T08:58:48.713Z,19.93
2018-12-31T09:01:19.347Z,19.67
2018-12-31T09:03:50.058Z,19.33
2018-12-31T09:06:20.509Z,14.90
2018-12-31T09:08:51.002Z,15.33
2018-12-31T09:11:21.665Z,14.43
2018-12-31T09:13:52.288Z,12.00
2018-12-31T09:16:22.804Z,12.10
2018-12-31T09:19:01.138Z,12.63
2018-12-31T09:21:31.802Z,12.37
2018-12-31T09:24:04.948Z,14.63
2018-12-31T09:26:35.589Z,24.00
2018-12-31T09:29:09.983Z,19.87
2018-12-31T09:31:44.103Z,18.70
2018-12-31T09:34:17.108Z,15.50
2018-12-31T09:36:47.723Z,12.43
2018-12-31T09:39:18.197Z,11.03
2018-12-31T09:41:48.768Z,10.90
2018-12-31T09:44:19.443Z,11.20
2018-12-31T09:46:50.429Z,10.43
2018-12-31T09:49:21.047Z,10.33
2018-12-31T09:51:51.929Z,11.13
2018-12-31T09:54:22.553Z,12.83
2018-12-31T09:56:53.633Z,11.13
2018-12-31T09:59:24.318Z,10.63
2018-12-31T10:01:55.023Z,11.00
2018-12-31T10:04:25.510Z,12.23
2018-12-31T10:06:56.217Z,14.23
2018-12-31T10:09:26.553Z,13.73
2018-12-31T10:11:57.272Z,12.80
2018-12-31T10:14:27.828Z,13.13
2018-12-31T10:16:58.323Z,11.80
2018-12-31T10:19:29.062Z,13.27
2018-12-31T10:21:59.527Z,11.73
2018-12-31T10:24:29.872Z,12.97
2018-12-31T10:27:00.643Z,12.73
2018-12-31T10:29:35.968Z,12.60
2018-12-31T10:32:04.112Z,12.83
2018-12-31T10:34:34.532Z,13.47
2018-12-31T10:37:05.087Z,11.90
2018-12-31T10:39:36.004Z,11.20
2018-12-31T10:42:06.783Z,11.47
2018-12-31T10:44:37.480Z,11.17
2018-12-31T10:47:08.047Z,10.63
2018-12-31T10:49:38.588Z,10.33
2018-12-31T10:52:09.368Z,11.07
2018-12-31T10:54:40.059Z,10.23
2018-12-31T10:57:10.404Z,9.47
2018-12-31T10:59:40.823Z,10.00
2018-12-31T11:02:11.233Z,10.63
2018-12-31T11:04:41.828Z,10.70
2018-12-31T11:07:12.478Z,10.20
2018-12-31T11:09:43.393Z,9.93
2018-12-31T11:12:14.028Z,10.30
2018-12-31T11:14:44.823Z,9.87
2018-12-31T11:17:15.503Z,10.70
2018-12-31T11:19:46.103Z,10.63
2018-12-31T11:22:16.488Z,10.43
2018-12-31T11:24:46.969Z,11.67
2018-12-31T11:27:17.513Z,11.60
2018-12-31T11:29:50.033Z,11.10
2018-12-31T11:32:20.673Z,11.43
2018-12-31T11:34:51.694Z,12.67
2018-12-31T11:37:22.219Z,10.37
2018-12-31T11:39:53.998Z,12.17
2018-12-31T11:42:26.137Z,17.43
2018-12-31T11:44:57.457Z,15.73
2018-12-31T11:47:29.813Z,11.17
2018-12-31T11:50:01.242Z,12.43
2018-12-31T11:52:32.408Z,11.40
2018-12-31T11:55:03.540Z,10.67
2018-12-31T11:57:34.954Z,10.73
2018-12-31T12:00:08.948Z,10.37
2018-12-31T12:02:39.608Z,10.13
2018-12-31T12:05:10.103Z,11.07
2018-12-31T12:07:40.983Z,10.17
2018-12-31T12:10:11.557Z,11.47
2018-12-31T12:12:43.593Z,10.47
2018-12-31T12:15:14.289Z,11.07
2018-12-31T12:17:45.803Z,11.23
2018-12-31T12:20:17.618Z,10.87
2018-12-31T12:22:48.078Z,9.83
2018-12-31T12:25:18.830Z,11.63
2018-12-31T12:27:49.748Z,11.10
2018-12-31T12:30:20.129Z,12.03
2018-12-31T12:32:50.614Z,11.00
2018-12-31T12:35:21.243Z,11.30
2018-12-31T12:37:51.774Z,11.23
2018-12-31T12:40:22.533Z,11.97
2018-12-31T12:42:53.334Z,11.03
2018-12-31T12:45:24.018Z,10.37
2018-12-31T12:47:56.362Z,10.20
2018-12-31T12:50:26.798Z,10.00
2018-12-31T12:52:57.754Z,8.43
2018-12-31T12:55:28.630Z,9.40
2018-12-31T12:57:59.339Z,9.50
2018-12-31T13:00:30.094Z,9.50
2018-12-31T13:03:01.544Z,9.17
2018-12-31T13:05:32.058Z,9.40
2018-12-31T13:08:02.879Z,9.63
2018-12-31T13:10:33.628Z,9.73
2018-12-31T13:13:04.393Z,9.53
2018-12-31T13:15:35.418Z,9.97
2018-12-31T13:18:06.379Z,9.20
2018-12-31T13:20:37.238Z,9.47
2018-12-31T13:23:07.908Z,8.73
2018-12-31T13:25:38.873Z,10.67
2018-12-31T13:28:09.759Z,10.73
2018-12-31T13:30:40.478Z,10.27
2018-12-31T13:33:10.993Z,10.47
2018-12-31T13:35:41.548Z,11.63
2018-12-31T13:38:12.568Z,11.77
2018-12-31T13:40:43.769Z,11.23
2018-12-31T13:43:14.623Z,11.17
2018-12-31T13:45:45.528Z,11.73
2018-12-31T13:48:16.538Z,12.23
2018-12-31T13:50:47.169Z,15.63
2018-12-31T13:53:17.793Z,14.20
2018-12-31T13:55:48.328Z,14.33
2018-12-31T13:58:18.989Z,13.03
2018-12-31T14:00:49.801Z,12.93
2018-12-31T14:03:20.529Z,14.47
2018-12-31T14:05:51.288Z,15.23
2018-12-31T14:08:21.912Z,14.77
2018-12-31T14:10:53.028Z,13.60
2018-12-31T14:13:23.508Z,15.67
2018-12-31T14:15:54.033Z,14.83
2018-12-31T14:18:24.965Z,15.87
2018-12-31T14:20:55.938Z,14.83
2018-12-31T14:23:26.643Z,15.37
2018-12-31T14:25:57.538Z,15.83
2018-12-31T14:28:28.085Z,15.57
2018-12-31T14:30:58.538Z,15.97
2018-12-31T14:33:29.103Z,17.20
2018-12-31T14:35:59.643Z,16.77
2018-12-31T14:38:30.176Z,16.43
2018-12-31T14:41:00.838Z,17.83
2018-12-31T14:43:31.608Z,17.13
2018-12-31T14:46:02.463Z,16.90
2018-12-31T14:48:33.098Z,16.70
2018-12-31T14:51:03.659Z,17.20
2018-12-31T14:53:34.494Z,17.33
2018-12-31T14:56:05.173Z,17.43
2018-12-31T14:58:35.584Z,17.23
2018-12-31T15:01:06.103Z,18.20
2018-12-31T15:03:36.718Z,19.27
2018-12-31T15:06:07.489Z,19.53
2018-12-31T15:08:38.018Z,19.87
2018-12-31T15:11:08.754Z,19.97
2018-12-31T15:13:39.483Z,20.17
2018-12-31T15:16:09.996Z,20.37
2018-12-31T15:18:40.629Z,19.33
2018-12-31T15:21:11.133Z,20.30
2018-12-31T15:23:41.529Z,19.60
2018-12-31T15:26:12.008Z,18.73
2018-12-31T15:28:42.571Z,19.37
2018-12-31T15:31:13.113Z,19.53
2018-12-31T15:33:44.018Z,20.30
2018-12-31T15:36:14.575Z,20.27
2018-12-31T15:38:45.139Z,19.47
2018-12-31T15:41:15.689Z,20.23
2018-12-31T15:43:46.090Z,19.27
2018-12-31T15:46:20.185Z,19.73
2018-12-31T15:48:48.739Z,20.53
2018-12-31T15:51:19.424Z,21.07
2018-12-31T15:53:49.864Z,20.07
2018-12-31T15:56:20.556Z,21.03
2018-12-31T15:58:51.256Z,20.77
2018-12-31T16:01:22.134Z,21.97
2018-12-31T16:03:52.548Z,21.40
2018-12-31T16:06:23.293Z,21.70
2018-12-31T16:08:53.934Z,23.10
2018-12-31T16:11:24.574Z,21.27
2018-12-31T16:13:55.295Z,22.40
2018-12-31T16:16:25.833Z,21.67
2018-12-31T16:18:56.383Z,22.43
2018-12-31T16:21:26.939Z,22.27
2018-12-31T16:23:57.539Z,21.77
2018-12-31T16:26:27.898Z,22.57
2018-12-31T16:28:58.430Z,22.67
2018-12-31T16:31:28.944Z,29.93
2018-12-31T16:33:59.334Z,24.00
2018-12-31T16:36:30.119Z,22.03
2018-12-31T16:39:00.600Z,22.77
2018-12-31T16:41:31.093Z,21.73
2018-12-31T16:44:01.599Z,23.27
2018-12-31T16:46:32.204Z,23.50
2018-12-31T16:49:02.518Z,21.10
2018-12-31T16:51:33.003Z,23.83
2018-12-31T16:54:03.543Z,23.20
2018-12-31T16:56:33.963Z,44.37
2018-12-31T16:59:04.803Z,33.27
2018-12-31T17:01:37.503Z,27.87
2018-12-31T17:04:07.918Z,27.67
2018-12-31T17:06:38.443Z,28.47
2018-12-31T17:09:09.753Z,31.90
2018-12-31T17:11:40.439Z,33.30
2018-12-31T17:14:11.239Z,33.60
2018-12-31T17:16:41.784Z,33.30
2018-12-31T17:19:12.259Z,34.43
2018-12-31T17:21:42.909Z,33.40
2018-12-31T17:24:13.369Z,34.80
2018-12-31T17:26:43.794Z,38.73
2018-12-31T17:29:14.298Z,37.57
2018-12-31T17:31:45.053Z,36.80
2018-12-31T17:34:15.743Z,37.53
2018-12-31T17:36:46.318Z,36.03
2018-12-31T17:39:16.818Z,37.27
2018-12-31T17:41:47.268Z,36.97
2018-12-31T17:44:17.833Z,37.47
2018-12-31T17:46:48.449Z,37.27
2018-12-31T17:49:18.973Z,39.00
2018-12-31T17:51:55.708Z,39.00
2018-12-31T17:54:21.793Z,38.43
2018-12-31T17:56:52.199Z,46.87
2018-12-31T17:59:25.718Z,56.53
2018-12-31T18:01:56.773Z,56.43
2018-12-31T18:04:28.124Z,47.60
2018-12-31T18:06:59.215Z,45.87
2018-12-31T18:09:30.954Z,49.83
2018-12-31T18:12:02.753Z,47.20
2018-12-31T18:14:34.711Z,45.73
2018-12-31T18:17:05.123Z,49.10
2018-12-31T18:19:35.799Z,51.93
2018-12-31T18:22:06.249Z,52.73
2018-12-31T18:24:36.948Z,50.33
2018-12-31T18:27:07.742Z,47.03
2018-12-31T18:29:38.465Z,50.37
2018-12-31T18:32:10.024Z,51.43
2018-12-31T18:34:43.160Z,56.97
2018-12-31T18:37:14.399Z,55.00
2018-12-31T18:39:49.205Z,53.00
2018-12-31T18:42:18.653Z,53.60
2018-12-31T18:44:49.293Z,52.70
2018-12-31T18:47:19.858Z,52.10
2018-12-31T18:49:50.358Z,52.93
2018-12-31T18:52:21.021Z,51.53
2018-12-31T18:54:51.770Z,52.90
2018-12-31T18:57:22.359Z,53.37
2018-12-31T18:59:53.545Z,54.27
2018-12-31T19:02:24.899Z,52.87
2018-12-31T19:04:55.684Z,53.80
2018-12-31T19:07:26.223Z,53.37
2018-12-31T19:09:56.874Z,51.53
2018-12-31T19:12:27.344Z,51.53
2018-12-31T19:14:57.844Z,53.70
2018-12-31T19:17:28.343Z,73.53
2018-12-31T19:19:58.694Z,62.03
2018-12-31T19:22:29.329Z,54.37
2018-12-31T19:25:00.236Z,56.07
2018-12-31T19:27:30.619Z,58.73
2018-12-31T19:30:01.180Z,53.10
2018-12-31T19:32:31.774Z,52.67
2018-12-31T19:35:02.138Z,55.77
2018-12-31T19:37:32.594Z,61.63
2018-12-31T19:40:03.094Z,59.60
2018-12-31T19:42:33.723Z,54.53
2018-12-31T19:45:04.298Z,57.63
2018-12-31T19:47:34.778Z,60.00
2018-12-31T19:50:05.519Z,60.80
2018-12-31T19:52:36.118Z,62.90
2018-12-31T19:55:07.150Z,60.93
2018-12-31T19:57:37.603Z,62.57
2018-12-31T20:00:09.149Z,70.83
2018-12-31T20:02:39.954Z,68.67
2018-12-31T20:05:10.421Z,62.57
2018-12-31T20:07:41.184Z,66.67
2018-12-31T20:10:11.737Z,62.27
2018-12-31T20:12:42.249Z,63.60
2018-12-31T20:15:12.693Z,68.23
2018-12-31T20:17:43.438Z,65.47
2018-12-31T20:20:13.937Z,62.70
2018-12-31T20:22:44.738Z,64.97
2018-12-31T20:25:15.424Z,64.33
2018-12-31T20:27:46.102Z,65.60
2018-12-31T20:30:16.608Z,63.60
2018-12-31T20:32:47.278Z,60.93
2018-12-31T20:35:17.968Z,59.20
2018-12-31T20:37:48.703Z,62.33
2018-12-31T20:40:19.316Z,65.53
2018-12-31T20:42:49.883Z,65.97
2018-12-31T20:45:20.358Z,63.40
2018-12-31T20:47:51.323Z,64.93
2018-12-31T20:50:21.739Z,63.93
2018-12-31T20:52:52.413Z,66.43
2018-12-31T20:55:23.073Z,63.60
2018-12-31T20:57:53.504Z,64.40
2018-12-31T21:00:24.153Z,62.63
2018-12-31T21:02:54.699Z,62.17
2018-12-31T21:05:25.408Z,66.00
2018-12-31T21:07:56.449Z,62.57
2018-12-31T21:10:26.866Z,68.20
2018-12-31T21:12:57.438Z,71.00
2018-12-31T21:15:28.008Z,66.13
2018-12-31T21:17:58.481Z,63.27
2018-12-31T21:20:29.153Z,77.43
2018-12-31T21:22:59.933Z,80.43
2018-12-31T21:25:30.417Z,73.27
2018-12-31T21:28:01.022Z,70.30
2018-12-31T21:30:31.480Z,74.43
2018-12-31T21:33:02.153Z,69.00
2018-12-31T21:35:32.714Z,66.03
2018-12-31T21:38:03.244Z,66.57
2018-12-31T21:40:33.979Z,79.77
2018-12-31T21:43:04.398Z,78.63
2018-12-31T21:45:34.953Z,75.53
2018-12-31T21:48:05.468Z,72.10
2018-12-31T21:50:35.929Z,75.10
2018-12-31T21:53:06.339Z,75.03
2018-12-31T21:55:36.990Z,79.90
2018-12-31T21:58:07.898Z,81.80
2018-12-31T22:00:38.455Z,70.33
2018-12-31T22:03:08.984Z,70.37
2018-12-31T22:05:39.433Z,69.47
2018-12-31T22:08:09.973Z,74.17
2018-12-31T22:10:40.713Z,70.03
2018-12-31T22:13:11.183Z,75.43
2018-12-31T22:15:41.818Z,78.93
2018-12-31T22:18:12.238Z,71.80
2018-12-31T22:20:42.772Z,73.43
2018-12-31T22:23:13.208Z,76.83
2018-12-31T22:25:43.633Z,69.77
2018-12-31T22:28:14.113Z,65.63
2018-12-31T22:30:44.593Z,63.63
2018-12-31T22:33:15.608Z,63.60
2018-12-31T22:35:45.953Z,62.80
2018-12-31T22:38:16.333Z,64.73
2018-12-31T22:40:47.213Z,62.40
2018-12-31T22:43:17.664Z,62.07
2018-12-31T22:45:48.157Z,63.80
2018-12-31T22:48:18.752Z,63.90
2018-12-31T22:50:49.158Z,60.77
2018-12-31T22:53:19.617Z,61.43
2018-12-31T22:55:50.403Z,61.40
2018-12-31T22:58:20.762Z,59.60
2018-12-31T23:00:51.992Z,58.33
2018-12-31T23:03:22.500Z,60.47
2018-12-31T23:05:53.127Z,58.10
2018-12-31T23:08:23.637Z,60.20
2018-12-31T23:10:54.107Z,92.47
2018-12-31T23:13:24.622Z,85.80
2018-12-31T23:15:55.062Z,87.47
2018-12-31T23:18:25.545Z,341.57
2018-12-31T23:20:56.122Z,330.23
2018-12-31T23:23:26.592Z,190.43
2018-12-31T23:25:58.064Z,140.33
2018-12-31T23:28:28.587Z,114.30
2018-12-31T23:30:59.427Z,103.63
2018-12-31T23:33:29.967Z,87.20
2018-12-31T23:36:00.377Z,75.27
2018-12-31T23:38:30.686Z,75.60
2018-12-31T23:41:01.293Z,80.00
2018-12-31T23:43:31.682Z,74.97
2018-12-31T23:46:02.210Z,80.47
2018-12-31T23:48:32.762Z,73.07
2018-12-31T23:51:03.307Z,83.20
2018-12-31T23:53:34.202Z,82.17
2018-12-31T23:56:04.687Z,73.10
2018-12-31T23:58:35.077Z,82.90
